sensor_id;sensor_type;location;lat;lon;timestamp;temperature;humidity
54788;DHT22;59598;48.112;16.280;2022-08-19T00:02:04;21.00;99.90
54788;DHT22;59598;48.112;16.280;2022-08-19T00:04:38;21.10;99.90
54788;DHT22;59598;48.112;16.280;2022-08-19T00:07:11;21.10;99.90
54788;DHT22;59598;48.112;16.280;2022-08-19T00:09:45;21.10;99.90
54788;DHT22;59598;48.112;16.280;2022-08-19T00:12:16;21.10;99.90
54788;DHT22;59598;48.112;16.280;2022-08-19T00:14:52;21.00;99.90
54788;DHT22;59598;48.112;16.280;2022-08-19T00:17:28;21.00;99.90
54788;DHT22;59598;48.112;16.280;2022-08-19T00:20:05;21.00;99.90
54788;DHT22;59598;48.112;16.280;2022-08-19T00:22:39;21.00;99.90
54788;DHT22;59598;48.112;16.280;2022-08-19T00:25:14;20.90;99.90
54788;DHT22;59598;48.112;16.280;2022-08-19T00:27:57;21.10;99.90
54788;DHT22;59598;48.112;16.280;2022-08-19T00:30:29;21.00;99.90
54788;DHT22;59598;48.112;16.280;2022-08-19T00:33:06;21.00;99.90
54788;DHT22;59598;48.112;16.280;2022-08-19T00:35:39;21.00;99.90
54788;DHT22;59598;48.112;16.280;2022-08-19T00:38:13;21.00;99.90
54788;DHT22;59598;48.112;16.280;2022-08-19T00:40:49;20.90;99.90
54788;DHT22;59598;48.112;16.280;2022-08-19T00:43:23;21.00;99.90
54788;DHT22;59598;48.112;16.280;2022-08-19T00:45:54;21.10;99.90
54788;DHT22;59598;48.112;16.280;2022-08-19T00:48:25;21.20;99.90
54788;DHT22;59598;48.112;16.280;2022-08-19T00:50:57;21.30;99.90
54788;DHT22;59598;48.112;16.280;2022-08-19T00:53:31;21.30;99.90
54788;DHT22;59598;48.112;16.280;2022-08-19T00:56:05;21.20;99.90
54788;DHT22;59598;48.112;16.280;2022-08-19T00:58:39;21.20;99.90
54788;DHT22;59598;48.112;16.280;2022-08-19T01:01:13;21.10;99.90
54788;DHT22;59598;48.112;16.280;2022-08-19T01:03:47;21.00;99.90
54788;DHT22;59598;48.112;16.280;2022-08-19T01:06:21;21.00;99.90
54788;DHT22;59598;48.112;16.280;2022-08-19T01:08:57;20.90;99.90
54788;DHT22;59598;48.112;16.280;2022-08-19T01:11:37;20.90;99.90
54788;DHT22;59598;48.112;16.280;2022-08-19T01:14:11;20.90;99.90
54788;DHT22;59598;48.112;16.280;2022-08-19T01:16:45;21.00;99.90
54788;DHT22;59598;48.112;16.280;2022-08-19T01:19:28;21.00;99.90
54788;DHT22;59598;48.112;16.280;2022-08-19T01:24:51;21.10;99.90
54788;DHT22;59598;48.112;16.280;2022-08-19T01:27:25;21.20;99.90
54788;DHT22;59598;48.112;16.280;2022-08-19T01:30:00;21.20;99.90
54788;DHT22;59598;48.112;16.280;2022-08-19T01:32:33;21.20;99.90
54788;DHT22;59598;48.112;16.280;2022-08-19T01:35:07;21.30;99.90
54788;DHT22;59598;48.112;16.280;2022-08-19T01:38:10;21.30;99.90
54788;DHT22;59598;48.112;16.280;2022-08-19T01:40:44;21.30;99.90
54788;DHT22;59598;48.112;16.280;2022-08-19T01:43:21;21.30;99.90
54788;DHT22;59598;48.112;16.280;2022-08-19T01:45:54;21.20;99.90
54788;DHT22;59598;48.112;16.280;2022-08-19T01:48:36;21.20;99.90
54788;DHT22;59598;48.112;16.280;2022-08-19T01:51:09;21.10;99.90
54788;DHT22;59598;48.112;16.280;2022-08-19T01:53:41;21.10;99.90
54788;DHT22;59598;48.112;16.280;2022-08-19T01:56:15;21.20;99.90
54788;DHT22;59598;48.112;16.280;2022-08-19T01:58:48;21.10;99.90
54788;DHT22;59598;48.112;16.280;2022-08-19T02:01:21;21.00;99.90
54788;DHT22;59598;48.112;16.280;2022-08-19T02:03:52;20.90;99.90
54788;DHT22;59598;48.112;16.280;2022-08-19T02:06:24;20.80;99.90
54788;DHT22;59598;48.112;16.280;2022-08-19T02:09:03;20.80;99.90
54788;DHT22;59598;48.112;16.280;2022-08-19T02:11:37;20.70;99.90
54788;DHT22;59598;48.112;16.280;2022-08-19T02:14:12;20.60;99.90
54788;DHT22;59598;48.112;16.280;2022-08-19T02:16:44;20.60;99.90
54788;DHT22;59598;48.112;16.280;2022-08-19T02:19:17;20.60;99.90
54788;DHT22;59598;48.112;16.280;2022-08-19T02:21:51;20.70;99.90
54788;DHT22;59598;48.112;16.280;2022-08-19T02:24:23;21.20;99.90
54788;DHT22;59598;48.112;16.280;2022-08-19T02:26:54;21.60;99.90
54788;DHT22;59598;48.112;16.280;2022-08-19T02:29:29;22.00;99.90
54788;DHT22;59598;48.112;16.280;2022-08-19T02:32:03;22.50;99.90
54788;DHT22;59598;48.112;16.280;2022-08-19T02:34:37;22.70;99.90
54788;DHT22;59598;48.112;16.280;2022-08-19T02:37:08;22.70;99.90
54788;DHT22;59598;48.112;16.280;2022-08-19T02:40:03;22.80;99.90
54788;DHT22;59598;48.112;16.280;2022-08-19T02:42:39;22.70;99.90
54788;DHT22;59598;48.112;16.280;2022-08-19T02:45:13;22.60;99.90
54788;DHT22;59598;48.112;16.280;2022-08-19T02:47:44;22.70;99.90
54788;DHT22;59598;48.112;16.280;2022-08-19T02:50:19;22.70;99.90
54788;DHT22;59598;48.112;16.280;2022-08-19T02:52:53;22.60;99.90
54788;DHT22;59598;48.112;16.280;2022-08-19T02:55:27;22.60;99.90
54788;DHT22;59598;48.112;16.280;2022-08-19T02:58:04;22.40;99.90
54788;DHT22;59598;48.112;16.280;2022-08-19T03:00:45;22.30;99.90
54788;DHT22;59598;48.112;16.280;2022-08-19T03:03:20;22.30;99.90
54788;DHT22;59598;48.112;16.280;2022-08-19T03:05:51;22.10;99.90
54788;DHT22;59598;48.112;16.280;2022-08-19T03:08:23;22.00;99.90
54788;DHT22;59598;48.112;16.280;2022-08-19T03:11:00;21.90;99.90
54788;DHT22;59598;48.112;16.280;2022-08-19T03:13:36;22.00;99.90
54788;DHT22;59598;48.112;16.280;2022-08-19T03:16:08;21.90;99.90
54788;DHT22;59598;48.112;16.280;2022-08-19T03:18:39;21.80;99.90
54788;DHT22;59598;48.112;16.280;2022-08-19T03:21:24;21.60;99.90
54788;DHT22;59598;48.112;16.280;2022-08-19T03:23:58;21.60;99.90
54788;DHT22;59598;48.112;16.280;2022-08-19T03:26:29;21.50;99.90
54788;DHT22;59598;48.112;16.280;2022-08-19T03:29:07;21.40;99.90
54788;DHT22;59598;48.112;16.280;2022-08-19T03:31:45;21.50;99.90
54788;DHT22;59598;48.112;16.280;2022-08-19T03:34:21;21.40;99.90
54788;DHT22;59598;48.112;16.280;2022-08-19T03:37:03;21.40;99.90
54788;DHT22;59598;48.112;16.280;2022-08-19T03:39:40;21.30;99.90
54788;DHT22;59598;48.112;16.280;2022-08-19T03:42:15;21.10;99.90
54788;DHT22;59598;48.112;16.280;2022-08-19T03:44:47;21.10;99.90
54788;DHT22;59598;48.112;16.280;2022-08-19T03:47:19;21.00;99.90
54788;DHT22;59598;48.112;16.280;2022-08-19T03:49:52;20.90;99.90
54788;DHT22;59598;48.112;16.280;2022-08-19T03:52:23;20.80;99.90
54788;DHT22;59598;48.112;16.280;2022-08-19T03:54:57;20.80;99.90
54788;DHT22;59598;48.112;16.280;2022-08-19T03:57:28;20.70;99.90
54788;DHT22;59598;48.112;16.280;2022-08-19T04:00:07;20.70;99.90
54788;DHT22;59598;48.112;16.280;2022-08-19T04:02:41;20.70;99.90
54788;DHT22;59598;48.112;16.280;2022-08-19T04:05:15;20.80;99.90
54788;DHT22;59598;48.112;16.280;2022-08-19T04:07:46;20.70;99.90
54788;DHT22;59598;48.112;16.280;2022-08-19T04:10:17;20.80;99.90
54788;DHT22;59598;48.112;16.280;2022-08-19T04:12:49;20.80;99.90
54788;DHT22;59598;48.112;16.280;2022-08-19T04:15:27;20.80;99.90
54788;DHT22;59598;48.112;16.280;2022-08-19T04:18:01;20.80;99.90
54788;DHT22;59598;48.112;16.280;2022-08-19T04:20:37;20.90;99.90
54788;DHT22;59598;48.112;16.280;2022-08-19T04:23:08;20.90;99.90
54788;DHT22;59598;48.112;16.280;2022-08-19T04:25:47;20.90;99.90
54788;DHT22;59598;48.112;16.280;2022-08-19T04:28:26;21.00;99.90
54788;DHT22;59598;48.112;16.280;2022-08-19T04:30:57;21.00;99.90
54788;DHT22;59598;48.112;16.280;2022-08-19T04:33:29;21.10;99.90
54788;DHT22;59598;48.112;16.280;2022-08-19T04:36:03;21.10;99.90
54788;DHT22;59598;48.112;16.280;2022-08-19T04:38:36;21.20;99.90
54788;DHT22;59598;48.112;16.280;2022-08-19T04:41:08;21.30;99.90
54788;DHT22;59598;48.112;16.280;2022-08-19T04:43:57;21.30;99.90
54788;DHT22;59598;48.112;16.280;2022-08-19T04:46:31;21.60;99.90
54788;DHT22;59598;48.112;16.280;2022-08-19T04:49:06;21.70;99.90
54788;DHT22;59598;48.112;16.280;2022-08-19T04:51:43;21.90;99.90
54788;DHT22;59598;48.112;16.280;2022-08-19T04:54:18;22.00;99.90
54788;DHT22;59598;48.112;16.280;2022-08-19T04:56:52;22.00;99.90
54788;DHT22;59598;48.112;16.280;2022-08-19T04:59:26;21.90;99.90
54788;DHT22;59598;48.112;16.280;2022-08-19T05:01:57;22.00;99.90
54788;DHT22;59598;48.112;16.280;2022-08-19T05:04:28;22.00;99.90
54788;DHT22;59598;48.112;16.280;2022-08-19T05:07:01;22.00;99.90
54788;DHT22;59598;48.112;16.280;2022-08-19T05:09:34;22.00;99.90
54788;DHT22;59598;48.112;16.280;2022-08-19T05:12:11;22.00;99.90
54788;DHT22;59598;48.112;16.280;2022-08-19T05:14:42;22.10;99.90
54788;DHT22;59598;48.112;16.280;2022-08-19T05:17:18;22.10;99.90
54788;DHT22;59598;48.112;16.280;2022-08-19T05:19:51;22.10;99.90
54788;DHT22;59598;48.112;16.280;2022-08-19T05:22:46;22.00;99.90
54788;DHT22;59598;48.112;16.280;2022-08-19T05:25:20;22.10;99.90
54788;DHT22;59598;48.112;16.280;2022-08-19T05:27:56;22.20;99.90
54788;DHT22;59598;48.112;16.280;2022-08-19T05:30:27;22.20;99.90
54788;DHT22;59598;48.112;16.280;2022-08-19T05:32:59;22.30;99.90
54788;DHT22;59598;48.112;16.280;2022-08-19T05:35:30;22.40;99.90
54788;DHT22;59598;48.112;16.280;2022-08-19T05:38:06;22.50;99.90
54788;DHT22;59598;48.112;16.280;2022-08-19T05:40:45;22.50;99.90
54788;DHT22;59598;48.112;16.280;2022-08-19T05:43:22;22.60;99.90
54788;DHT22;59598;48.112;16.280;2022-08-19T05:45:56;22.60;99.90
54788;DHT22;59598;48.112;16.280;2022-08-19T05:48:34;22.60;99.90
54788;DHT22;59598;48.112;16.280;2022-08-19T05:51:05;22.60;99.90
54788;DHT22;59598;48.112;16.280;2022-08-19T05:53:39;22.50;99.90
54788;DHT22;59598;48.112;16.280;2022-08-19T05:56:15;22.50;99.90
54788;DHT22;59598;48.112;16.280;2022-08-19T05:58:47;22.70;99.90
54788;DHT22;59598;48.112;16.280;2022-08-19T06:01:26;22.70;99.90
54788;DHT22;59598;48.112;16.280;2022-08-19T06:03:58;22.80;99.90
54788;DHT22;59598;48.112;16.280;2022-08-19T06:06:35;22.90;99.90
54788;DHT22;59598;48.112;16.280;2022-08-19T06:09:07;22.90;99.90
54788;DHT22;59598;48.112;16.280;2022-08-19T06:11:49;22.80;99.90
54788;DHT22;59598;48.112;16.280;2022-08-19T06:14:27;22.80;99.90
54788;DHT22;59598;48.112;16.280;2022-08-19T06:17:02;22.80;99.90
54788;DHT22;59598;48.112;16.280;2022-08-19T06:19:33;23.00;99.90
54788;DHT22;59598;48.112;16.280;2022-08-19T06:22:07;23.10;99.90
54788;DHT22;59598;48.112;16.280;2022-08-19T06:24:38;23.10;99.90
54788;DHT22;59598;48.112;16.280;2022-08-19T06:27:10;23.30;99.90
54788;DHT22;59598;48.112;16.280;2022-08-19T06:29:43;23.20;99.90
54788;DHT22;59598;48.112;16.280;2022-08-19T06:32:18;23.30;99.90
54788;DHT22;59598;48.112;16.280;2022-08-19T06:34:49;23.40;99.90
54788;DHT22;59598;48.112;16.280;2022-08-19T06:37:21;23.60;99.90
54788;DHT22;59598;48.112;16.280;2022-08-19T06:39:55;23.60;99.90
54788;DHT22;59598;48.112;16.280;2022-08-19T06:42:27;23.70;99.90
54788;DHT22;59598;48.112;16.280;2022-08-19T06:44:59;23.80;99.90
54788;DHT22;59598;48.112;16.280;2022-08-19T06:47:33;23.90;99.90
54788;DHT22;59598;48.112;16.280;2022-08-19T06:50:05;23.90;99.90
54788;DHT22;59598;48.112;16.280;2022-08-19T06:52:39;24.00;99.90
54788;DHT22;59598;48.112;16.280;2022-08-19T06:55:10;24.20;99.90
54788;DHT22;59598;48.112;16.280;2022-08-19T06:57:44;24.50;99.90
54788;DHT22;59598;48.112;16.280;2022-08-19T07:00:17;24.50;99.90
54788;DHT22;59598;48.112;16.280;2022-08-19T07:02:52;24.60;99.90
54788;DHT22;59598;48.112;16.280;2022-08-19T07:05:24;24.60;99.90
54788;DHT22;59598;48.112;16.280;2022-08-19T07:07:55;25.00;99.90
54788;DHT22;59598;48.112;16.280;2022-08-19T07:10:30;25.30;99.90
54788;DHT22;59598;48.112;16.280;2022-08-19T07:13:03;25.50;99.90
54788;DHT22;59598;48.112;16.280;2022-08-19T07:15:38;25.50;99.90
54788;DHT22;59598;48.112;16.280;2022-08-19T07:18:10;25.50;99.90
54788;DHT22;59598;48.112;16.280;2022-08-19T07:20:47;25.70;99.90
54788;DHT22;59598;48.112;16.280;2022-08-19T07:23:21;25.60;99.90
54788;DHT22;59598;48.112;16.280;2022-08-19T07:25:52;25.90;99.90
54788;DHT22;59598;48.112;16.280;2022-08-19T07:28:26;26.30;99.90
54788;DHT22;59598;48.112;16.280;2022-08-19T07:30:57;26.60;99.90
54788;DHT22;59598;48.112;16.280;2022-08-19T07:33:35;26.70;99.90
54788;DHT22;59598;48.112;16.280;2022-08-19T07:36:10;26.30;99.90
54788;DHT22;59598;48.112;16.280;2022-08-19T07:38:44;26.20;99.90
54788;DHT22;59598;48.112;16.280;2022-08-19T07:41:21;26.70;99.90
54788;DHT22;59598;48.112;16.280;2022-08-19T07:43:57;27.00;99.90
54788;DHT22;59598;48.112;16.280;2022-08-19T07:46:32;28.00;99.90
54788;DHT22;59598;48.112;16.280;2022-08-19T07:49:06;28.70;99.90
54788;DHT22;59598;48.112;16.280;2022-08-19T07:51:40;28.50;99.90
54788;DHT22;59598;48.112;16.280;2022-08-19T07:54:17;27.90;99.90
54788;DHT22;59598;48.112;16.280;2022-08-19T07:56:51;27.40;99.90
54788;DHT22;59598;48.112;16.280;2022-08-19T07:59:24;27.50;99.90
54788;DHT22;59598;48.112;16.280;2022-08-19T08:01:56;27.70;99.90
54788;DHT22;59598;48.112;16.280;2022-08-19T08:04:31;27.20;99.90
54788;DHT22;59598;48.112;16.280;2022-08-19T08:07:21;27.10;99.90
54788;DHT22;59598;48.112;16.280;2022-08-19T08:10:10;26.90;99.90
54788;DHT22;59598;48.112;16.280;2022-08-19T08:12:44;26.90;99.90
54788;DHT22;59598;48.112;16.280;2022-08-19T08:15:17;26.70;99.90
54788;DHT22;59598;48.112;16.280;2022-08-19T08:17:51;26.70;99.90
54788;DHT22;59598;48.112;16.280;2022-08-19T08:20:23;27.20;99.90
54788;DHT22;59598;48.112;16.280;2022-08-19T08:22:55;27.30;99.90
54788;DHT22;59598;48.112;16.280;2022-08-19T08:25:45;27.40;99.90
54788;DHT22;59598;48.112;16.280;2022-08-19T08:28:19;27.90;99.90
54788;DHT22;59598;48.112;16.280;2022-08-19T08:30:53;28.40;99.90
54788;DHT22;59598;48.112;16.280;2022-08-19T08:33:27;28.70;99.90
54788;DHT22;59598;48.112;16.280;2022-08-19T08:36:01;28.30;99.90
54788;DHT22;59598;48.112;16.280;2022-08-19T08:38:33;28.30;99.90
54788;DHT22;59598;48.112;16.280;2022-08-19T08:43:51;28.00;99.90
54788;DHT22;59598;48.112;16.280;2022-08-19T08:46:49;28.10;99.90
54788;DHT22;59598;48.112;16.280;2022-08-19T08:49:39;28.20;99.90
54788;DHT22;59598;48.112;16.280;2022-08-19T08:52:26;28.00;99.90
54788;DHT22;59598;48.112;16.280;2022-08-19T08:55:05;28.10;99.90
54788;DHT22;59598;48.112;16.280;2022-08-19T09:00:22;28.90;99.90
54788;DHT22;59598;48.112;16.280;2022-08-19T09:02:59;29.20;99.90
54788;DHT22;59598;48.112;16.280;2022-08-19T09:08:47;30.20;99.90
54788;DHT22;59598;48.112;16.280;2022-08-19T09:17:03;30.60;99.90
54788;DHT22;59598;48.112;16.280;2022-08-19T09:20:03;30.70;99.90
54788;DHT22;59598;48.112;16.280;2022-08-19T09:22:40;31.20;99.90
54788;DHT22;59598;48.112;16.280;2022-08-19T09:25:18;31.60;99.90
54788;DHT22;59598;48.112;16.280;2022-08-19T09:27:54;31.40;99.90
54788;DHT22;59598;48.112;16.280;2022-08-19T09:30:29;31.70;99.90
54788;DHT22;59598;48.112;16.280;2022-08-19T09:33:01;32.70;99.90
54788;DHT22;59598;48.112;16.280;2022-08-19T09:35:33;32.40;99.90
54788;DHT22;59598;48.112;16.280;2022-08-19T09:38:06;32.90;99.90
54788;DHT22;59598;48.112;16.280;2022-08-19T09:40:39;33.90;99.90
54788;DHT22;59598;48.112;16.280;2022-08-19T09:43:11;34.30;99.90
54788;DHT22;59598;48.112;16.280;2022-08-19T09:45:42;34.70;99.90
54788;DHT22;59598;48.112;16.280;2022-08-19T09:48:16;34.10;99.90
54788;DHT22;59598;48.112;16.280;2022-08-19T09:50:49;33.90;99.90
54788;DHT22;59598;48.112;16.280;2022-08-19T09:53:23;32.70;99.90
54788;DHT22;59598;48.112;16.280;2022-08-19T09:55:55;33.10;99.90
54788;DHT22;59598;48.112;16.280;2022-08-19T09:58:26;34.20;99.90
54788;DHT22;59598;48.112;16.280;2022-08-19T10:01:00;34.70;99.90
54788;DHT22;59598;48.112;16.280;2022-08-19T10:03:33;34.90;99.90
54788;DHT22;59598;48.112;16.280;2022-08-19T10:06:05;34.80;99.90
54788;DHT22;59598;48.112;16.280;2022-08-19T10:08:39;34.40;99.90
54788;DHT22;59598;48.112;16.280;2022-08-19T10:11:10;33.90;99.90
54788;DHT22;59598;48.112;16.280;2022-08-19T10:13:49;33.80;99.90
54788;DHT22;59598;48.112;16.280;2022-08-19T10:16:22;33.60;99.90
54788;DHT22;59598;48.112;16.280;2022-08-19T10:18:59;33.50;99.90
54788;DHT22;59598;48.112;16.280;2022-08-19T10:21:33;33.40;99.90
54788;DHT22;59598;48.112;16.280;2022-08-19T10:24:08;33.00;99.90
54788;DHT22;59598;48.112;16.280;2022-08-19T10:26:40;32.50;99.90
54788;DHT22;59598;48.112;16.280;2022-08-19T10:29:20;32.80;99.90
54788;DHT22;59598;48.112;16.280;2022-08-19T10:31:54;32.30;99.90
54788;DHT22;59598;48.112;16.280;2022-08-19T10:34:27;31.40;99.90
54788;DHT22;59598;48.112;16.280;2022-08-19T10:36:59;31.10;99.90
54788;DHT22;59598;48.112;16.280;2022-08-19T10:39:35;30.70;99.90
54788;DHT22;59598;48.112;16.280;2022-08-19T10:42:08;30.20;99.90
54788;DHT22;59598;48.112;16.280;2022-08-19T10:44:44;29.80;99.90
54788;DHT22;59598;48.112;16.280;2022-08-19T10:47:17;29.40;99.90
54788;DHT22;59598;48.112;16.280;2022-08-19T10:49:53;28.80;99.90
54788;DHT22;59598;48.112;16.280;2022-08-19T10:52:47;28.20;99.90
54788;DHT22;59598;48.112;16.280;2022-08-19T10:55:23;27.50;99.90
54788;DHT22;59598;48.112;16.280;2022-08-19T10:58:16;27.50;99.90
54788;DHT22;59598;48.112;16.280;2022-08-19T11:00:55;27.50;99.90
54788;DHT22;59598;48.112;16.280;2022-08-19T11:03:27;27.60;99.90
54788;DHT22;59598;48.112;16.280;2022-08-19T11:06:02;27.60;99.90
54788;DHT22;59598;48.112;16.280;2022-08-19T11:08:35;27.50;99.90
54788;DHT22;59598;48.112;16.280;2022-08-19T11:11:11;27.20;99.90
54788;DHT22;59598;48.112;16.280;2022-08-19T11:13:46;27.10;99.90
54788;DHT22;59598;48.112;16.280;2022-08-19T11:16:25;27.20;99.90
54788;DHT22;59598;48.112;16.280;2022-08-19T11:19:04;27.40;99.90
54788;DHT22;59598;48.112;16.280;2022-08-19T11:21:43;27.30;99.90
54788;DHT22;59598;48.112;16.280;2022-08-19T11:24:20;27.40;99.90
54788;DHT22;59598;48.112;16.280;2022-08-19T11:26:54;27.70;99.90
54788;DHT22;59598;48.112;16.280;2022-08-19T11:29:39;27.90;99.90
54788;DHT22;59598;48.112;16.280;2022-08-19T11:32:10;28.50;99.90
54788;DHT22;59598;48.112;16.280;2022-08-19T11:34:43;29.10;99.90
54788;DHT22;59598;48.112;16.280;2022-08-19T11:37:14;29.40;99.90
54788;DHT22;59598;48.112;16.280;2022-08-19T11:39:48;29.20;99.90
54788;DHT22;59598;48.112;16.280;2022-08-19T11:42:19;29.10;99.90
54788;DHT22;59598;48.112;16.280;2022-08-19T11:45:09;29.10;99.90
54788;DHT22;59598;48.112;16.280;2022-08-19T11:47:41;29.10;99.90
54788;DHT22;59598;48.112;16.280;2022-08-19T11:50:13;30.70;99.90
54788;DHT22;59598;48.112;16.280;2022-08-19T11:52:45;33.30;99.90
54788;DHT22;59598;48.112;16.280;2022-08-19T11:55:20;34.90;99.90
54788;DHT22;59598;48.112;16.280;2022-08-19T11:57:54;34.20;99.90
54788;DHT22;59598;48.112;16.280;2022-08-19T12:00:30;34.30;99.90
54788;DHT22;59598;48.112;16.280;2022-08-19T12:03:02;33.40;99.90
54788;DHT22;59598;48.112;16.280;2022-08-19T12:05:37;33.10;99.90
54788;DHT22;59598;48.112;16.280;2022-08-19T12:08:14;32.30;99.90
54788;DHT22;59598;48.112;16.280;2022-08-19T12:10:46;31.90;99.90
54788;DHT22;59598;48.112;16.280;2022-08-19T12:13:19;32.00;99.90
54788;DHT22;59598;48.112;16.280;2022-08-19T12:15:50;32.10;99.90
54788;DHT22;59598;48.112;16.280;2022-08-19T12:18:22;32.40;99.90
54788;DHT22;59598;48.112;16.280;2022-08-19T12:20:55;32.40;99.90
54788;DHT22;59598;48.112;16.280;2022-08-19T12:23:32;31.80;99.90
54788;DHT22;59598;48.112;16.280;2022-08-19T12:26:04;31.70;99.90
54788;DHT22;59598;48.112;16.280;2022-08-19T12:28:37;31.70;99.90
54788;DHT22;59598;48.112;16.280;2022-08-19T12:31:10;31.80;99.90
54788;DHT22;59598;48.112;16.280;2022-08-19T12:33:47;31.40;99.90
54788;DHT22;59598;48.112;16.280;2022-08-19T12:36:24;30.80;99.90
54788;DHT22;59598;48.112;16.280;2022-08-19T12:38:57;30.30;99.90
54788;DHT22;59598;48.112;16.280;2022-08-19T12:41:31;30.00;99.90
54788;DHT22;59598;48.112;16.280;2022-08-19T12:44:03;30.00;99.90
54788;DHT22;59598;48.112;16.280;2022-08-19T12:46:34;29.80;99.90
54788;DHT22;59598;48.112;16.280;2022-08-19T12:49:06;29.80;99.90
54788;DHT22;59598;48.112;16.280;2022-08-19T12:51:37;29.50;99.90
54788;DHT22;59598;48.112;16.280;2022-08-19T12:54:08;29.00;99.90
54788;DHT22;59598;48.112;16.280;2022-08-19T12:56:39;28.50;99.90
54788;DHT22;59598;48.112;16.280;2022-08-19T12:59:14;28.10;99.90
54788;DHT22;59598;48.112;16.280;2022-08-19T13:01:48;27.80;99.90
54788;DHT22;59598;48.112;16.280;2022-08-19T13:04:21;27.60;99.90
54788;DHT22;59598;48.112;16.280;2022-08-19T13:06:55;27.60;99.90
54788;DHT22;59598;48.112;16.280;2022-08-19T13:09:29;27.40;99.90
54788;DHT22;59598;48.112;16.280;2022-08-19T13:12:01;27.00;99.90
54788;DHT22;59598;48.112;16.280;2022-08-19T13:14:35;26.80;99.90
54788;DHT22;59598;48.112;16.280;2022-08-19T13:17:12;26.80;99.90
54788;DHT22;59598;48.112;16.280;2022-08-19T13:19:49;26.60;99.90
54788;DHT22;59598;48.112;16.280;2022-08-19T13:22:26;26.60;99.90
54788;DHT22;59598;48.112;16.280;2022-08-19T13:25:00;26.60;99.90
54788;DHT22;59598;48.112;16.280;2022-08-19T13:27:31;26.60;99.90
54788;DHT22;59598;48.112;16.280;2022-08-19T13:30:07;26.70;99.90
54788;DHT22;59598;48.112;16.280;2022-08-19T13:33:00;26.90;99.90
54788;DHT22;59598;48.112;16.280;2022-08-19T13:35:59;27.00;99.90
54788;DHT22;59598;48.112;16.280;2022-08-19T13:38:31;26.80;99.90
54788;DHT22;59598;48.112;16.280;2022-08-19T13:41:04;26.60;99.90
54788;DHT22;59598;48.112;16.280;2022-08-19T13:43:36;26.50;99.90
54788;DHT22;59598;48.112;16.280;2022-08-19T13:46:13;26.60;99.90
54788;DHT22;59598;48.112;16.280;2022-08-19T13:48:45;26.80;99.90
54788;DHT22;59598;48.112;16.280;2022-08-19T13:51:22;27.10;99.90
54788;DHT22;59598;48.112;16.280;2022-08-19T13:53:57;27.30;99.90
54788;DHT22;59598;48.112;16.280;2022-08-19T13:56:29;27.30;99.90
54788;DHT22;59598;48.112;16.280;2022-08-19T13:59:01;27.50;99.90
54788;DHT22;59598;48.112;16.280;2022-08-19T14:01:35;27.60;99.90
54788;DHT22;59598;48.112;16.280;2022-08-19T14:04:07;27.60;99.90
54788;DHT22;59598;48.112;16.280;2022-08-19T14:06:39;27.60;99.90
54788;DHT22;59598;48.112;16.280;2022-08-19T14:09:16;27.70;99.90
54788;DHT22;59598;48.112;16.280;2022-08-19T14:11:47;27.90;99.90
54788;DHT22;59598;48.112;16.280;2022-08-19T14:14:22;28.70;99.90
54788;DHT22;59598;48.112;16.280;2022-08-19T14:16:55;29.30;99.90
54788;DHT22;59598;48.112;16.280;2022-08-19T14:19:29;30.10;99.90
54788;DHT22;59598;48.112;16.280;2022-08-19T14:22:02;30.40;99.90
54788;DHT22;59598;48.112;16.280;2022-08-19T14:24:39;32.10;99.90
54788;DHT22;59598;48.112;16.280;2022-08-19T14:27:14;32.30;99.90
54788;DHT22;59598;48.112;16.280;2022-08-19T14:29:50;33.30;99.90
54788;DHT22;59598;48.112;16.280;2022-08-19T14:32:23;34.10;99.90
54788;DHT22;59598;48.112;16.280;2022-08-19T14:34:57;33.80;99.90
54788;DHT22;59598;48.112;16.280;2022-08-19T14:37:29;32.70;99.90
54788;DHT22;59598;48.112;16.280;2022-08-19T14:40:01;32.50;99.90
54788;DHT22;59598;48.112;16.280;2022-08-19T14:42:36;31.90;99.90
54788;DHT22;59598;48.112;16.280;2022-08-19T14:45:08;31.60;99.90
54788;DHT22;59598;48.112;16.280;2022-08-19T14:47:39;31.70;99.90
54788;DHT22;59598;48.112;16.280;2022-08-19T14:50:11;31.70;99.90
54788;DHT22;59598;48.112;16.280;2022-08-19T14:52:45;31.30;99.90
54788;DHT22;59598;48.112;16.280;2022-08-19T14:55:17;31.10;99.90
54788;DHT22;59598;48.112;16.280;2022-08-19T14:57:48;31.60;99.90
54788;DHT22;59598;48.112;16.280;2022-08-19T15:00:25;31.90;99.90
54788;DHT22;59598;48.112;16.280;2022-08-19T15:02:59;31.90;99.90
54788;DHT22;59598;48.112;16.280;2022-08-19T15:05:35;31.90;99.90
54788;DHT22;59598;48.112;16.280;2022-08-19T15:08:09;32.30;99.90
54788;DHT22;59598;48.112;16.280;2022-08-19T15:10:40;32.60;99.90
54788;DHT22;59598;48.112;16.280;2022-08-19T15:13:15;32.30;99.90
54788;DHT22;59598;48.112;16.280;2022-08-19T15:15:47;32.30;99.90
54788;DHT22;59598;48.112;16.280;2022-08-19T15:18:21;31.60;99.90
54788;DHT22;59598;48.112;16.280;2022-08-19T15:20:58;31.60;99.90
54788;DHT22;59598;48.112;16.280;2022-08-19T15:23:30;31.30;99.90
54788;DHT22;59598;48.112;16.280;2022-08-19T15:26:05;30.90;99.90
54788;DHT22;59598;48.112;16.280;2022-08-19T15:28:42;30.30;99.90
54788;DHT22;59598;48.112;16.280;2022-08-19T15:31:22;29.70;99.90
54788;DHT22;59598;48.112;16.280;2022-08-19T15:33:56;29.10;99.90
54788;DHT22;59598;48.112;16.280;2022-08-19T15:36:30;28.70;99.90
54788;DHT22;59598;48.112;16.280;2022-08-19T15:39:02;28.50;99.90
54788;DHT22;59598;48.112;16.280;2022-08-19T15:41:41;28.60;99.90
54788;DHT22;59598;48.112;16.280;2022-08-19T15:44:16;28.70;99.90
54788;DHT22;59598;48.112;16.280;2022-08-19T15:46:54;29.00;99.90
54788;DHT22;59598;48.112;16.280;2022-08-19T15:49:28;29.60;99.90
54788;DHT22;59598;48.112;16.280;2022-08-19T15:52:01;30.20;99.90
54788;DHT22;59598;48.112;16.280;2022-08-19T15:54:35;31.00;99.90
54788;DHT22;59598;48.112;16.280;2022-08-19T15:57:09;30.40;99.90
54788;DHT22;59598;48.112;16.280;2022-08-19T15:59:52;30.40;99.90
54788;DHT22;59598;48.112;16.280;2022-08-19T16:02:42;30.60;99.90
54788;DHT22;59598;48.112;16.280;2022-08-19T16:05:31;30.70;99.90
54788;DHT22;59598;48.112;16.280;2022-08-19T16:08:26;31.10;99.90
54788;DHT22;59598;48.112;16.280;2022-08-19T16:11:00;30.60;99.90
54788;DHT22;59598;48.112;16.280;2022-08-19T16:13:31;30.30;99.90
54788;DHT22;59598;48.112;16.280;2022-08-19T16:16:04;29.70;99.90
54788;DHT22;59598;48.112;16.280;2022-08-19T16:18:38;30.00;99.90
54788;DHT22;59598;48.112;16.280;2022-08-19T16:21:11;30.30;99.90